sensor_id;sensor_type;location;lat;lon;timestamp;pressure;altitude;pressure_sealevel;temperature;humidity
7264;BME280;3673;52.480;13.348;2022-10-16T00:00:41;100704.47;;;20.23;61.91
7264;BME280;3673;52.480;13.348;2022-10-16T00:03:10;100717.88;;;19.98;62.73
7264;BME280;3673;52.480;13.348;2022-10-16T00:05:41;100714.53;;;20.15;62.41
7264;BME280;3673;52.480;13.348;2022-10-16T00:08:10;100708.66;;;20.30;61.69
7264;BME280;3673;52.480;13.348;2022-10-16T00:10:37;100719.31;;;20.29;61.62
7264;BME280;3673;52.480;13.348;2022-10-16T00:13:06;100723.53;;;20.34;61.81
7264;BME280;3673;52.480;13.348;2022-10-16T00:15:34;100714.50;;;20.17;62.18
7264;BME280;3673;52.480;13.348;2022-10-16T00:18:01;100726.13;;;20.36;61.72
7264;BME280;3673;52.480;13.348;2022-10-16T00:20:28;100724.28;;;20.38;61.67
7264;BME280;3673;52.480;13.348;2022-10-16T00:22:56;100718.03;;;20.17;62.40
7264;BME280;3673;52.480;13.348;2022-10-16T00:25:23;100723.53;;;20.34;61.92
7264;BME280;3673;52.480;13.348;2022-10-16T00:27:50;100722.69;;;20.34;61.84
7264;BME280;3673;52.480;13.348;2022-10-16T00:30:18;100743.28;;;20.05;62.66
7264;BME280;3673;52.480;13.348;2022-10-16T00:32:45;100734.09;;;20.14;62.49
7264;BME280;3673;52.480;13.348;2022-10-16T00:35:12;100733.84;;;20.42;61.86
7264;BME280;3673;52.480;13.348;2022-10-16T00:37:39;100740.72;;;20.47;61.57
7264;BME280;3673;52.480;13.348;2022-10-16T00:40:07;100736.97;;;20.31;62.13
7264;BME280;3673;52.480;13.348;2022-10-16T00:42:34;100736.91;;;20.53;61.40
7264;BME280;3673;52.480;13.348;2022-10-16T00:45:00;100737.19;;;20.47;61.33
7264;BME280;3673;52.480;13.348;2022-10-16T00:47:31;100733.84;;;20.42;61.60
7264;BME280;3673;52.480;13.348;2022-10-16T00:50:04;100734.91;;;20.38;61.92
7264;BME280;3673;52.480;13.348;2022-10-16T00:52:33;100743.25;;;20.29;62.00
7264;BME280;3673;52.480;13.348;2022-10-16T00:55:00;100742.25;;;20.53;61.37
7264;BME280;3673;52.480;13.348;2022-10-16T00:57:29;100747.94;;;20.44;61.39
7264;BME280;3673;52.480;13.348;2022-10-16T00:59:57;100753.56;;;20.36;61.70
7264;BME280;3673;52.480;13.348;2022-10-16T01:02:24;100755.19;;;20.40;61.46
7264;BME280;3673;52.480;13.348;2022-10-16T01:04:53;100750.25;;;20.31;61.92
7264;BME280;3673;52.480;13.348;2022-10-16T01:07:33;100743.09;;;20.53;61.18
7264;BME280;3673;52.480;13.348;2022-10-16T01:10:12;100747.72;;;20.48;61.40
7264;BME280;3673;52.480;13.348;2022-10-16T01:12:45;100745.75;;;20.53;61.13
7264;BME280;3673;52.480;13.348;2022-10-16T01:15:19;100748.16;;;20.60;61.05
7264;BME280;3673;52.480;13.348;2022-10-16T01:17:53;100746.16;;;20.44;61.41
7264;BME280;3673;52.480;13.348;2022-10-16T01:20:28;100753.59;;;20.57;61.11
7264;BME280;3673;52.480;13.348;2022-10-16T01:23:10;100763.66;;;20.70;60.49
7264;BME280;3673;52.480;13.348;2022-10-16T01:26:01;100764.06;;;20.39;61.58
7264;BME280;3673;52.480;13.348;2022-10-16T01:28:38;100764.75;;;20.44;61.47
7264;BME280;3673;52.480;13.348;2022-10-16T01:31:06;100766.59;;;20.42;61.40
7264;BME280;3673;52.480;13.348;2022-10-16T01:33:38;100767.72;;;20.37;61.74
7264;BME280;3673;52.480;13.348;2022-10-16T01:36:13;100767.81;;;20.55;61.15
7264;BME280;3673;52.480;13.348;2022-10-16T01:38:41;100778.75;;;20.26;61.94
7264;BME280;3673;52.480;13.348;2022-10-16T01:41:13;100780.13;;;20.36;61.84
7264;BME280;3673;52.480;13.348;2022-10-16T01:43:46;100782.31;;;20.27;61.89
7264;BME280;3673;52.480;13.348;2022-10-16T01:46:18;100787.50;;;20.07;62.79
7264;BME280;3673;52.480;13.348;2022-10-16T01:48:47;100775.03;;;20.09;62.82
7264;BME280;3673;52.480;13.348;2022-10-16T01:51:16;100774.84;;;20.13;62.63
7264;BME280;3673;52.480;13.348;2022-10-16T01:53:49;100780.16;;;20.13;62.54
7264;BME280;3673;52.480;13.348;2022-10-16T01:56:17;100786.31;;;19.92;63.23
7264;BME280;3673;52.480;13.348;2022-10-16T01:58:50;100787.88;;;19.97;63.05
7264;BME280;3673;52.480;13.348;2022-10-16T02:01:21;100790.53;;;19.97;63.38
7264;BME280;3673;52.480;13.348;2022-10-16T02:03:54;100791.59;;;20.15;62.87
7264;BME280;3673;52.480;13.348;2022-10-16T02:06:23;100784.06;;;20.04;62.74
7264;BME280;3673;52.480;13.348;2022-10-16T02:08:51;100800.72;;;19.85;63.58
7264;BME280;3673;52.480;13.348;2022-10-16T02:11:18;100804.69;;;19.75;63.97
7264;BME280;3673;52.480;13.348;2022-10-16T02:13:50;100807.78;;;19.86;63.74
7264;BME280;3673;52.480;13.348;2022-10-16T02:16:17;100812.94;;;19.90;63.31
7264;BME280;3673;52.480;13.348;2022-10-16T02:18:44;100810.53;;;20.06;63.19
7264;BME280;3673;52.480;13.348;2022-10-16T02:21:17;100821.53;;;19.97;63.12
7264;BME280;3673;52.480;13.348;2022-10-16T02:23:50;100832.72;;;20.05;62.87
7264;BME280;3673;52.480;13.348;2022-10-16T02:26:25;100819.84;;;20.18;62.62
7264;BME280;3673;52.480;13.348;2022-10-16T02:28:58;100809.13;;;20.19;62.37
7264;BME280;3673;52.480;13.348;2022-10-16T02:31:28;100814.72;;;19.90;63.41
7264;BME280;3673;52.480;13.348;2022-10-16T02:34:00;100807.66;;;19.89;63.75
7264;BME280;3673;52.480;13.348;2022-10-16T02:36:28;100805.19;;;20.08;62.91
7264;BME280;3673;52.480;13.348;2022-10-16T02:38:56;100828.59;;;19.98;62.96
7264;BME280;3673;52.480;13.348;2022-10-16T02:41:23;100817.84;;;19.78;63.77
7264;BME280;3673;52.480;13.348;2022-10-16T02:43:50;100829.25;;;20.03;63.17
7264;BME280;3673;52.480;13.348;2022-10-16T02:46:19;100817.50;;;20.32;62.04
7264;BME280;3673;52.480;13.348;2022-10-16T02:48:46;100817.84;;;20.23;62.42
7264;BME280;3673;52.480;13.348;2022-10-16T02:51:13;100814.13;;;20.28;61.97
7264;BME280;3673;52.480;13.348;2022-10-16T02:53:40;100820.00;;;20.36;61.96
7264;BME280;3673;52.480;13.348;2022-10-16T02:56:07;100821.75;;;20.37;61.78
7264;BME280;3673;52.480;13.348;2022-10-16T02:58:34;100819.63;;;20.22;62.14
7264;BME280;3673;52.480;13.348;2022-10-16T03:01:01;100820.38;;;20.26;62.22
7264;BME280;3673;52.480;13.348;2022-10-16T03:03:29;100811.88;;;20.18;62.30
7264;BME280;3673;52.480;13.348;2022-10-16T03:05:56;100812.31;;;20.29;61.95
7264;BME280;3673;52.480;13.348;2022-10-16T03:08:23;100822.19;;;20.25;62.11
7264;BME280;3673;52.480;13.348;2022-10-16T03:10:51;100831.44;;;20.15;62.43
7264;BME280;3673;52.480;13.348;2022-10-16T03:13:18;100825.44;;;20.10;62.54
7264;BME280;3673;52.480;13.348;2022-10-16T03:15:46;100840.16;;;20.19;62.23
7264;BME280;3673;52.480;13.348;2022-10-16T03:18:14;100840.69;;;20.05;62.62
7264;BME280;3673;52.480;13.348;2022-10-16T03:20:42;100827.13;;;20.13;62.37
7264;BME280;3673;52.480;13.348;2022-10-16T03:23:09;100842.50;;;19.81;63.34
7264;BME280;3673;52.480;13.348;2022-10-16T03:25:37;100840.91;;;19.99;62.73
7264;BME280;3673;52.480;13.348;2022-10-16T03:28:04;100843.44;;;20.02;62.70
7264;BME280;3673;52.480;13.348;2022-10-16T03:30:31;100854.28;;;19.97;62.97
7264;BME280;3673;52.480;13.348;2022-10-16T03:32:58;100852.28;;;20.02;62.97
7264;BME280;3673;52.480;13.348;2022-10-16T03:35:25;100860.09;;;20.07;62.52
7264;BME280;3673;52.480;13.348;2022-10-16T03:37:53;100869.25;;;19.98;62.87
7264;BME280;3673;52.480;13.348;2022-10-16T03:40:20;100875.63;;;19.94;63.09
7264;BME280;3673;52.480;13.348;2022-10-16T03:42:47;100868.81;;;19.87;63.20
7264;BME280;3673;52.480;13.348;2022-10-16T03:45:16;100865.94;;;19.69;64.02
7264;BME280;3673;52.480;13.348;2022-10-16T03:47:43;100874.00;;;19.67;63.88
7264;BME280;3673;52.480;13.348;2022-10-16T03:50:10;100885.75;;;19.60;64.34
7264;BME280;3673;52.480;13.348;2022-10-16T03:52:36;100889.00;;;19.43;64.70
7264;BME280;3673;52.480;13.348;2022-10-16T03:55:06;100880.22;;;19.66;64.31
7264;BME280;3673;52.480;13.348;2022-10-16T03:57:33;100890.50;;;19.75;63.98
7264;BME280;3673;52.480;13.348;2022-10-16T04:00:00;100894.81;;;19.55;64.31
7264;BME280;3673;52.480;13.348;2022-10-16T04:02:26;100889.53;;;19.53;64.49
7264;BME280;3673;52.480;13.348;2022-10-16T04:04:53;100897.22;;;19.61;64.21
7264;BME280;3673;52.480;13.348;2022-10-16T04:07:20;100907.84;;;19.61;64.42
7264;BME280;3673;52.480;13.348;2022-10-16T04:09:47;100898.41;;;19.52;64.50
7264;BME280;3673;52.480;13.348;2022-10-16T04:12:15;100916.50;;;19.41;64.86
7264;BME280;3673;52.480;13.348;2022-10-16T04:14:41;100911.91;;;19.46;64.41
7264;BME280;3673;52.480;13.348;2022-10-16T04:17:08;100905.59;;;19.48;64.59
7264;BME280;3673;52.480;13.348;2022-10-16T04:19:35;100907.19;;;19.54;64.48
7264;BME280;3673;52.480;13.348;2022-10-16T04:22:02;100914.19;;;19.57;64.38
7264;BME280;3673;52.480;13.348;2022-10-16T04:24:29;100909.78;;;19.56;64.23
7264;BME280;3673;52.480;13.348;2022-10-16T04:26:56;100910.97;;;19.72;63.91
7264;BME280;3673;52.480;13.348;2022-10-16T04:29:24;100897.75;;;19.70;63.95
7264;BME280;3673;52.480;13.348;2022-10-16T04:31:51;100888.91;;;19.71;63.56
7264;BME280;3673;52.480;13.348;2022-10-16T04:34:17;100899.69;;;19.65;63.77
7264;BME280;3673;52.480;13.348;2022-10-16T04:36:47;100886.28;;;19.45;64.47
7264;BME280;3673;52.480;13.348;2022-10-16T04:39:13;100878.75;;;19.58;64.21
7264;BME280;3673;52.480;13.348;2022-10-16T04:41:40;100874.75;;;19.71;63.68
7264;BME280;3673;52.480;13.348;2022-10-16T04:44:07;100878.31;;;19.70;63.61
7264;BME280;3673;52.480;13.348;2022-10-16T04:46:35;100872.84;;;19.74;63.32
7264;BME280;3673;52.480;13.348;2022-10-16T04:49:02;100878.84;;;19.79;63.33
7264;BME280;3673;52.480;13.348;2022-10-16T04:51:28;100881.50;;;19.79;63.17
7264;BME280;3673;52.480;13.348;2022-10-16T04:53:55;100879.19;;;19.70;63.30
7264;BME280;3673;52.480;13.348;2022-10-16T04:56:22;100885.59;;;19.65;63.48
7264;BME280;3673;52.480;13.348;2022-10-16T04:58:49;100883.63;;;19.70;63.43
7264;BME280;3673;52.480;13.348;2022-10-16T05:01:16;100897.88;;;19.67;63.67
7264;BME280;3673;52.480;13.348;2022-10-16T05:03:44;100906.25;;;19.55;63.50
7264;BME280;3673;52.480;13.348;2022-10-16T05:06:11;100901.16;;;19.49;63.99
7264;BME280;3673;52.480;13.348;2022-10-16T05:08:38;100919.59;;;19.53;63.99
7264;BME280;3673;52.480;13.348;2022-10-16T05:11:04;100917.09;;;19.49;64.17
7264;BME280;3673;52.480;13.348;2022-10-16T05:13:31;100922.38;;;19.50;64.20
7264;BME280;3673;52.480;13.348;2022-10-16T05:15:58;100929.38;;;19.51;64.07
7264;BME280;3673;52.480;13.348;2022-10-16T05:18:25;100928.47;;;19.52;63.88
7264;BME280;3673;52.480;13.348;2022-10-16T05:20:53;100925.28;;;19.43;63.90
7264;BME280;3673;52.480;13.348;2022-10-16T05:23:19;100926.53;;;19.31;64.47
7264;BME280;3673;52.480;13.348;2022-10-16T05:25:53;100913.94;;;19.38;64.31
7264;BME280;3673;52.480;13.348;2022-10-16T05:28:20;100912.97;;;19.40;63.96
7264;BME280;3673;52.480;13.348;2022-10-16T05:30:47;100920.50;;;19.26;64.54
7264;BME280;3673;52.480;13.348;2022-10-16T05:33:14;100916.75;;;19.32;64.48
7264;BME280;3673;52.480;13.348;2022-10-16T05:35:40;100913.47;;;19.25;64.43
7264;BME280;3673;52.480;13.348;2022-10-16T05:38:09;100928.25;;;19.32;64.30
7264;BME280;3673;52.480;13.348;2022-10-16T05:40:36;100930.97;;;19.05;65.10
7264;BME280;3673;52.480;13.348;2022-10-16T05:43:02;100934.13;;;19.16;64.79
7264;BME280;3673;52.480;13.348;2022-10-16T05:45:30;100937.34;;;19.25;64.16
7264;BME280;3673;52.480;13.348;2022-10-16T05:47:57;100944.25;;;19.31;64.54
7264;BME280;3673;52.480;13.348;2022-10-16T05:50:23;100949.66;;;19.28;64.28
7264;BME280;3673;52.480;13.348;2022-10-16T05:52:50;100936.16;;;19.34;64.20
7264;BME280;3673;52.480;13.348;2022-10-16T05:55:18;100937.09;;;19.33;64.01
7264;BME280;3673;52.480;13.348;2022-10-16T05:57:45;100949.06;;;19.18;64.62
7264;BME280;3673;52.480;13.348;2022-10-16T06:00:12;100948.59;;;19.32;64.18
7264;BME280;3673;52.480;13.348;2022-10-16T06:02:39;100942.59;;;19.27;64.34
7264;BME280;3673;52.480;13.348;2022-10-16T06:05:06;100938.16;;;19.27;64.27
7264;BME280;3673;52.480;13.348;2022-10-16T06:07:34;100937.63;;;19.44;63.61
7264;BME280;3673;52.480;13.348;2022-10-16T06:10:02;100944.63;;;19.19;64.42
7264;BME280;3673;52.480;13.348;2022-10-16T06:12:31;100946.59;;;19.38;64.06
7264;BME280;3673;52.480;13.348;2022-10-16T06:14:57;100939.13;;;19.25;64.10
7264;BME280;3673;52.480;13.348;2022-10-16T06:17:24;100961.69;;;19.38;63.83
7264;BME280;3673;52.480;13.348;2022-10-16T06:19:51;100956.91;;;19.49;63.53
7264;BME280;3673;52.480;13.348;2022-10-16T06:22:18;100957.75;;;19.51;63.46
7264;BME280;3673;52.480;13.348;2022-10-16T06:24:45;100952.22;;;19.57;63.17
7264;BME280;3673;52.480;13.348;2022-10-16T06:27:12;100950.69;;;19.50;63.62
7264;BME280;3673;52.480;13.348;2022-10-16T06:29:40;100953.91;;;19.58;63.20
7264;BME280;3673;52.480;13.348;2022-10-16T06:32:08;100970.47;;;19.66;63.19
7264;BME280;3673;52.480;13.348;2022-10-16T06:34:35;100966.69;;;19.73;62.99
7264;BME280;3673;52.480;13.348;2022-10-16T06:37:02;100974.75;;;19.70;63.19
7264;BME280;3673;52.480;13.348;2022-10-16T06:39:28;100982.75;;;19.69;63.33
7264;BME280;3673;52.480;13.348;2022-10-16T06:41:55;100988.06;;;19.69;63.29
7264;BME280;3673;52.480;13.348;2022-10-16T06:44:22;100991.47;;;19.47;63.93
7264;BME280;3673;52.480;13.348;2022-10-16T06:46:50;100992.66;;;19.37;64.31
7264;BME280;3673;52.480;13.348;2022-10-16T06:49:19;100992.91;;;19.30;64.53
7264;BME280;3673;52.480;13.348;2022-10-16T06:51:48;100997.44;;;19.54;64.27
7264;BME280;3673;52.480;13.348;2022-10-16T06:54:15;100994.06;;;19.49;64.31
7264;BME280;3673;52.480;13.348;2022-10-16T06:56:42;100997.47;;;19.52;63.96
7264;BME280;3673;52.480;13.348;2022-10-16T06:59:08;101001.69;;;19.58;63.74
7264;BME280;3673;52.480;13.348;2022-10-16T07:01:35;101003.09;;;19.43;64.44
7264;BME280;3673;52.480;13.348;2022-10-16T07:04:03;100999.78;;;19.63;63.78
7264;BME280;3673;52.480;13.348;2022-10-16T07:06:33;101011.06;;;19.70;63.70
7264;BME280;3673;52.480;13.348;2022-10-16T07:09:03;101010.53;;;19.59;64.21
7264;BME280;3673;52.480;13.348;2022-10-16T07:11:31;101022.56;;;19.69;64.14
7264;BME280;3673;52.480;13.348;2022-10-16T07:13:59;101028.16;;;19.87;63.59
7264;BME280;3673;52.480;13.348;2022-10-16T07:16:28;101034.63;;;19.79;63.70
7264;BME280;3673;52.480;13.348;2022-10-16T07:18:57;101026.09;;;19.69;64.12
7264;BME280;3673;52.480;13.348;2022-10-16T07:21:28;101025.28;;;19.93;63.63
7264;BME280;3673;52.480;13.348;2022-10-16T07:23:57;101028.84;;;20.17;62.71
7264;BME280;3673;52.480;13.348;2022-10-16T07:26:25;101032.09;;;20.25;62.71
7264;BME280;3673;52.480;13.348;2022-10-16T07:28:52;101031.50;;;20.17;62.42
7264;BME280;3673;52.480;13.348;2022-10-16T07:31:22;101026.84;;;20.24;62.39
7264;BME280;3673;52.480;13.348;2022-10-16T07:33:50;101021.81;;;20.41;61.82
7264;BME280;3673;52.480;13.348;2022-10-16T07:36:19;101013.88;;;20.39;61.64
7264;BME280;3673;52.480;13.348;2022-10-16T07:38:48;101027.25;;;20.61;61.23
7264;BME280;3673;52.480;13.348;2022-10-16T07:41:17;101038.81;;;20.37;62.13
7264;BME280;3673;52.480;13.348;2022-10-16T07:43:47;101039.31;;;20.46;62.11
7264;BME280;3673;52.480;13.348;2022-10-16T07:46:15;101035.91;;;20.43;61.78
7264;BME280;3673;52.480;13.348;2022-10-16T07:48:42;101033.78;;;20.52;61.45
7264;BME280;3673;52.480;13.348;2022-10-16T07:51:11;101030.44;;;20.47;61.74
7264;BME280;3673;52.480;13.348;2022-10-16T07:53:38;101033.25;;;20.66;61.40
7264;BME280;3673;52.480;13.348;2022-10-16T07:56:07;101030.31;;;20.74;61.13
7264;BME280;3673;52.480;13.348;2022-10-16T07:58:36;101029.44;;;20.73;61.46
7264;BME280;3673;52.480;13.348;2022-10-16T08:01:05;101035.28;;;20.83;61.00
7264;BME280;3673;52.480;13.348;2022-10-16T08:03:32;101050.44;;;20.81;60.89
7264;BME280;3673;52.480;13.348;2022-10-16T08:05:59;101059.28;;;20.81;61.10
7264;BME280;3673;52.480;13.348;2022-10-16T08:08:27;101066.84;;;20.69;61.49
7264;BME280;3673;52.480;13.348;2022-10-16T08:10:54;101067.34;;;20.78;61.09
7264;BME280;3673;52.480;13.348;2022-10-16T08:13:22;101081.66;;;20.76;61.42
7264;BME280;3673;52.480;13.348;2022-10-16T08:15:49;101075.56;;;20.72;61.59
7264;BME280;3673;52.480;13.348;2022-10-16T08:18:16;101066.41;;;20.81;61.51
7264;BME280;3673;52.480;13.348;2022-10-16T08:20:43;101067.91;;;20.88;61.40
7264;BME280;3673;52.480;13.348;2022-10-16T08:23:12;101064.72;;;21.01;60.89
7264;BME280;3673;52.480;13.348;2022-10-16T08:25:39;101063.50;;;20.87;61.33
7264;BME280;3673;52.480;13.348;2022-10-16T08:28:08;101071.66;;;20.82;61.24
7264;BME280;3673;52.480;13.348;2022-10-16T08:30:37;101076.00;;;21.08;60.67
7264;BME280;3673;52.480;13.348;2022-10-16T08:33:04;101078.03;;;21.01;60.89
7264;BME280;3673;52.480;13.348;2022-10-16T08:35:31;101081.91;;;21.16;60.64
7264;BME280;3673;52.480;13.348;2022-10-16T08:37:58;101082.41;;;21.02;60.55
7264;BME280;3673;52.480;13.348;2022-10-16T08:40:28;101076.72;;;21.35;59.59
7264;BME280;3673;52.480;13.348;2022-10-16T08:43:19;101072.50;;;21.29;59.69
7264;BME280;3673;52.480;13.348;2022-10-16T08:46:07;101081.31;;;21.31;59.24
7264;BME280;3673;52.480;13.348;2022-10-16T08:48:44;101074.94;;;21.12;60.15
7264;BME280;3673;52.480;13.348;2022-10-16T08:51:19;101082.53;;;21.23;59.80
7264;BME280;3673;52.480;13.348;2022-10-16T08:53:51;101081.06;;;21.37;59.27
7264;BME280;3673;52.480;13.348;2022-10-16T08:56:19;101085.09;;;21.47;59.15
7264;BME280;3673;52.480;13.348;2022-10-16T08:58:46;101089.16;;;21.34;59.48
7264;BME280;3673;52.480;13.348;2022-10-16T09:01:17;101105.06;;;21.36;59.24
7264;BME280;3673;52.480;13.348;2022-10-16T09:04:07;101106.84;;;21.35;59.32
7264;BME280;3673;52.480;13.348;2022-10-16T09:06:45;101109.47;;;21.37;59.40
7264;BME280;3673;52.480;13.348;2022-10-16T09:09:52;101104.00;;;21.83;58.04
7264;BME280;3673;52.480;13.348;2022-10-16T09:12:25;101110.53;;;21.98;57.70
7264;BME280;3673;52.480;13.348;2022-10-16T09:15:03;101116.94;;;21.94;57.53
7264;BME280;3673;52.480;13.348;2022-10-16T09:17:45;101117.97;;;22.12;56.97
7264;BME280;3673;52.480;13.348;2022-10-16T09:20:28;101119.03;;;22.28;56.36
7264;BME280;3673;52.480;13.348;2022-10-16T09:23:13;101109.88;;;22.13;56.23
7264;BME280;3673;52.480;13.348;2022-10-16T09:25:44;101110.91;;;22.51;55.73
7264;BME280;3673;52.480;13.348;2022-10-16T09:28:14;101110.44;;;22.21;56.19
7264;BME280;3673;52.480;13.348;2022-10-16T09:30:42;101113.38;;;21.93;56.71
7264;BME280;3673;52.480;13.348;2022-10-16T09:33:12;101099.50;;;22.07;56.66
7264;BME280;3673;52.480;13.348;2022-10-16T09:35:42;101109.22;;;22.08;56.64
7264;BME280;3673;52.480;13.348;2022-10-16T09:38:22;101115.81;;;22.60;55.19
7264;BME280;3673;52.480;13.348;2022-10-16T09:40:50;101124.53;;;22.64;54.98
7264;BME280;3673;52.480;13.348;2022-10-16T09:43:23;101123.50;;;22.47;55.28
7264;BME280;3673;52.480;13.348;2022-10-16T09:45:58;101131.41;;;22.49;55.25
7264;BME280;3673;52.480;13.348;2022-10-16T09:48:31;101131.06;;;22.97;53.81
7264;BME280;3673;52.480;13.348;2022-10-16T09:51:02;101143.91;;;23.07;53.34
7264;BME280;3673;52.480;13.348;2022-10-16T09:53:41;101134.97;;;23.27;52.92
7264;BME280;3673;52.480;13.348;2022-10-16T09:56:11;101151.00;;;23.27;52.84
7264;BME280;3673;52.480;13.348;2022-10-16T09:58:42;101145.16;;;23.38;52.52
7264;BME280;3673;52.480;13.348;2022-10-16T10:01:14;101147.84;;;22.80;53.46
7264;BME280;3673;52.480;13.348;2022-10-16T10:03:43;101146.06;;;22.59;54.47
7264;BME280;3673;52.480;13.348;2022-10-16T10:06:21;101151.44;;;22.79;53.81
7264;BME280;3673;52.480;13.348;2022-10-16T10:08:58;101157.03;;;22.93;53.42
7264;BME280;3673;52.480;13.348;2022-10-16T10:11:44;101166.53;;;22.99;53.28
7264;BME280;3673;52.480;13.348;2022-10-16T10:14:30;101165.84;;;23.14;52.56
7264;BME280;3673;52.480;13.348;2022-10-16T10:17:11;101157.84;;;23.14;52.58
7264;BME280;3673;52.480;13.348;2022-10-16T10:19:42;101155.34;;;23.67;51.56
7264;BME280;3673;52.480;13.348;2022-10-16T10:22:30;101152.03;;;23.43;51.76
7264;BME280;3673;52.480;13.348;2022-10-16T10:25:15;101160.13;;;23.61;51.25
7264;BME280;3673;52.480;13.348;2022-10-16T10:28:16;101172.00;;;23.35;51.82
7264;BME280;3673;52.480;13.348;2022-10-16T10:30:54;101170.50;;;22.90;51.61
7264;BME280;3673;52.480;13.348;2022-10-16T10:33:31;101167.56;;;22.96;51.62
7264;BME280;3673;52.480;13.348;2022-10-16T10:36:16;101176.81;;;23.27;50.57
7264;BME280;3673;52.480;13.348;2022-10-16T10:38:51;101182.78;;;23.52;50.06
7264;BME280;3673;52.480;13.348;2022-10-16T10:44:57;101185.50;;;22.93;50.27
7264;BME280;3673;52.480;13.348;2022-10-16T10:47:40;101188.44;;;23.26;49.59
7264;BME280;3673;52.480;13.348;2022-10-16T10:50:20;101186.00;;;23.40;49.24
7264;BME280;3673;52.480;13.348;2022-10-16T10:52:59;101181.03;;;23.70;48.88
7264;BME280;3673;52.480;13.348;2022-10-16T10:55:38;101178.97;;;23.93;48.27
7264;BME280;3673;52.480;13.348;2022-10-16T10:58:33;101189.94;;;23.70;48.27
7264;BME280;3673;52.480;13.348;2022-10-16T11:01:08;101188.59;;;23.97;47.80
7264;BME280;3673;52.480;13.348;2022-10-16T11:03:53;101188.84;;;23.74;48.28
7264;BME280;3673;52.480;13.348;2022-10-16T11:06:29;101179.38;;;24.39;47.00
7264;BME280;3673;52.480;13.348;2022-10-16T11:09:06;101179.91;;;24.97;45.31
7264;BME280;3673;52.480;13.348;2022-10-16T11:11:40;101188.22;;;25.25;45.07
7264;BME280;3673;52.480;13.348;2022-10-16T11:14:15;101189.53;;;25.01;44.75
7264;BME280;3673;52.480;13.348;2022-10-16T11:16:49;101198.66;;;24.80;45.45
7264;BME280;3673;52.480;13.348;2022-10-16T11:19:28;101190.41;;;24.50;45.67
7264;BME280;3673;52.480;13.348;2022-10-16T11:22:04;101191.72;;;24.05;46.45
7264;BME280;3673;52.480;13.348;2022-10-16T11:24:42;101186.31;;;23.71;47.59
7264;BME280;3673;52.480;13.348;2022-10-16T11:27:16;101182.44;;;24.14;46.29
7264;BME280;3673;52.480;13.348;2022-10-16T11:29:50;101187.53;;;23.83;46.55
7264;BME280;3673;52.480;13.348;2022-10-16T11:32:25;101182.63;;;24.28;45.71
7264;BME280;3673;52.480;13.348;2022-10-16T11:34:59;101183.41;;;24.65;44.62
7264;BME280;3673;52.480;13.348;2022-10-16T11:37:32;101184.00;;;24.35;44.16
7264;BME280;3673;52.480;13.348;2022-10-16T11:40:19;101190.25;;;24.70;43.26
7264;BME280;3673;52.480;13.348;2022-10-16T11:42:54;101178.94;;;25.15;42.33
7264;BME280;3673;52.480;13.348;2022-10-16T11:45:30;101180.03;;;24.61;43.10
7264;BME280;3673;52.480;13.348;2022-10-16T11:48:04;101178.34;;;24.58;43.46
7264;BME280;3673;52.480;13.348;2022-10-16T11:50:37;101186.75;;;25.02;42.53
7264;BME280;3673;52.480;13.348;2022-10-16T11:53:16;101182.38;;;25.17;42.05
7264;BME280;3673;52.480;13.348;2022-10-16T11:55:48;101186.44;;;25.08;41.72
7264;BME280;3673;52.480;13.348;2022-10-16T11:58:23;101192.94;;;25.20;41.07
7264;BME280;3673;52.480;13.348;2022-10-16T12:01:02;101201.50;;;25.27;40.81
7264;BME280;3673;52.480;13.348;2022-10-16T12:03:43;101198.19;;;24.89;41.04
7264;BME280;3673;52.480;13.348;2022-10-16T12:06:27;101200.81;;;24.90;40.85
7264;BME280;3673;52.480;13.348;2022-10-16T12:08:59;101206.47;;;24.67;41.59
7264;BME280;3673;52.480;13.348;2022-10-16T12:11:36;101207.16;;;24.71;40.83
7264;BME280;3673;52.480;13.348;2022-10-16T12:17:04;101214.75;;;25.13;39.53
7264;BME280;3673;52.480;13.348;2022-10-16T12:19:57;101213.44;;;25.37;38.66
7264;BME280;3673;52.480;13.348;2022-10-16T12:22:28;101215.31;;;26.15;38.02
7264;BME280;3673;52.480;13.348;2022-10-16T12:24:56;101209.50;;;26.68;36.99
7264;BME280;3673;52.480;13.348;2022-10-16T12:27:28;101219.53;;;27.22;35.79
7264;BME280;3673;52.480;13.348;2022-10-16T12:29:57;101222.38;;;26.16;37.56
7264;BME280;3673;52.480;13.348;2022-10-16T12:32:32;101226.09;;;26.74;36.59
7264;BME280;3673;52.480;13.348;2022-10-16T12:35:00;101221.16;;;26.96;36.14
7264;BME280;3673;52.480;13.348;2022-10-16T12:37:33;101213.03;;;27.26;36.13
7264;BME280;3673;52.480;13.348;2022-10-16T12:40:12;101219.56;;;27.65;35.24
7264;BME280;3673;52.480;13.348;2022-10-16T12:42:41;101230.50;;;28.17;34.34
7264;BME280;3673;52.480;13.348;2022-10-16T12:45:29;101230.59;;;28.42;33.87
7264;BME280;3673;52.480;13.348;2022-10-16T12:47:57;101229.72;;;27.74;34.63
7264;BME280;3673;52.480;13.348;2022-10-16T12:50:29;101224.72;;;27.39;34.84
7264;BME280;3673;52.480;13.348;2022-10-16T12:52:57;101226.38;;;27.28;34.76
7264;BME280;3673;52.480;13.348;2022-10-16T12:55:25;101232.53;;;27.58;34.28
7264;BME280;3673;52.480;13.348;2022-10-16T12:58:08;101232.22;;;28.44;32.79
7264;BME280;3673;52.480;13.348;2022-10-16T13:00:43;101235.50;;;28.62;32.50
7264;BME280;3673;52.480;13.348;2022-10-16T13:03:48;101238.03;;;28.11;33.05
7264;BME280;3673;52.480;13.348;2022-10-16T13:06:29;101251.91;;;27.77;33.51
7264;BME280;3673;52.480;13.348;2022-10-16T13:09:17;101251.31;;;27.86;33.75
7264;BME280;3673;52.480;13.348;2022-10-16T13:12:02;101245.28;;;28.63;32.66
7264;BME280;3673;52.480;13.348;2022-10-16T13:15:06;101241.63;;;28.25;33.00
7264;BME280;3673;52.480;13.348;2022-10-16T13:17:45;101254.38;;;27.94;33.52
7264;BME280;3673;52.480;13.348;2022-10-16T13:20:21;101262.66;;;27.77;33.67
7264;BME280;3673;52.480;13.348;2022-10-16T13:22:59;101269.44;;;26.52;35.96
7264;BME280;3673;52.480;13.348;2022-10-16T13:25:41;101276.06;;;26.31;36.32
7264;BME280;3673;52.480;13.348;2022-10-16T13:28:12;101273.66;;;26.27;36.26